createdAt,value
2023-02-15T00:01:42.660Z,37.92
2023-02-15T00:04:10.716Z,43.03
2023-02-15T00:06:37.412Z,45.40
2023-02-15T00:09:04.262Z,48.63
2023-02-15T00:11:49.476Z,57.92
2023-02-15T00:14:21.975Z,55.08
2023-02-15T00:16:50.161Z,71.20
2023-02-15T00:19:19.248Z,55.38
2023-02-15T00:21:46.726Z,56.03
2023-02-15T00:24:16.679Z,52.80
2023-02-15T00:26:44.309Z,43.42
2023-02-15T00:29:13.335Z,36.53
2023-02-15T00:31:40.024Z,42.60
2023-02-15T00:34:19.068Z,42.05
2023-02-15T00:36:46.204Z,47.78
2023-02-15T00:39:13.268Z,56.05
2023-02-15T00:41:40.513Z,53.97
2023-02-15T00:44:07.619Z,50.85
2023-02-15T00:46:34.992Z,53.60
2023-02-15T00:49:01.863Z,56.13
2023-02-15T00:51:28.640Z,66.07
2023-02-15T00:53:55.428Z,61.05
2023-02-15T00:56:22.727Z,61.17
2023-02-15T00:58:49.459Z,58.08
2023-02-15T01:01:21.174Z,63.65
2023-02-15T01:06:16.829Z,66.55
2023-02-15T01:08:44.498Z,74.93
2023-02-15T01:11:22.873Z,64.53
2023-02-15T01:13:57.973Z,81.82
2023-02-15T01:16:27.594Z,84.22
2023-02-15T01:18:55.616Z,72.82
2023-02-15T01:21:24.845Z,68.63
2023-02-15T01:23:51.571Z,77.80
2023-02-15T01:26:18.722Z,77.38
2023-02-15T01:28:46.122Z,79.32
2023-02-15T01:31:15.474Z,78.63
2023-02-15T01:33:42.900Z,80.53
2023-02-15T01:36:10.184Z,88.07
2023-02-15T01:38:37.133Z,81.05
2023-02-15T01:41:23.076Z,95.25
2023-02-15T01:43:53.606Z,79.85
2023-02-15T01:46:24.154Z,93.68
2023-02-15T01:49:00.580Z,94.60
2023-02-15T01:51:31.194Z,83.60
2023-02-15T01:54:16.373Z,89.13
2023-02-15T01:56:43.401Z,79.10
2023-02-15T01:59:16.715Z,85.43
2023-02-15T02:01:44.338Z,100.70
2023-02-15T02:04:26.634Z,89.57
2023-02-15T02:06:54.163Z,83.90
2023-02-15T02:09:20.965Z,87.93
2023-02-15T02:11:49.057Z,82.53
2023-02-15T02:14:17.374Z,82.32
2023-02-15T02:17:02.074Z,83.63
2023-02-15T02:20:06.232Z,88.25
2023-02-15T02:22:45.128Z,87.78
2023-02-15T02:25:30.330Z,85.00
2023-02-15T02:28:21.328Z,85.68
2023-02-15T02:31:15.255Z,87.85
2023-02-15T02:34:11.644Z,92.78
2023-02-15T02:37:22.733Z,86.68
2023-02-15T02:40:07.975Z,84.80
2023-02-15T02:42:42.728Z,85.70
2023-02-15T02:45:24.012Z,87.97
2023-02-15T02:47:56.730Z,83.45
2023-02-15T02:50:26.872Z,79.70
2023-02-15T02:52:56.186Z,81.60
2023-02-15T02:55:35.931Z,81.70
2023-02-15T02:58:14.344Z,81.70
2023-02-15T03:00:53.509Z,81.65
2023-02-15T03:03:27.027Z,88.40
2023-02-15T03:05:57.443Z,81.80
2023-02-15T03:08:29.012Z,83.00
2023-02-15T03:10:59.476Z,82.13
2023-02-15T03:13:26.364Z,83.53
2023-02-15T03:16:11.968Z,86.80
2023-02-15T03:18:44.585Z,80.50
2023-02-15T03:21:23.005Z,82.03
2023-02-15T03:23:55.595Z,76.40
2023-02-15T03:26:25.708Z,77.43
2023-02-15T03:28:56.651Z,80.13
2023-02-15T03:31:27.226Z,82.23
2023-02-15T03:34:01.148Z,85.97
2023-02-15T03:36:41.291Z,85.78
2023-02-15T03:39:55.494Z,79.68
2023-02-15T03:42:34.761Z,75.28
2023-02-15T03:45:09.437Z,81.70
2023-02-15T03:47:41.348Z,82.60
2023-02-15T03:50:40.513Z,86.50
2023-02-15T03:53:10.306Z,81.13
2023-02-15T03:55:37.274Z,87.22
2023-02-15T03:58:23.658Z,81.43
2023-02-15T04:01:17.709Z,80.13
2023-02-15T04:03:47.649Z,74.65
2023-02-15T04:06:14.313Z,71.93
2023-02-15T04:08:59.943Z,76.68
2023-02-15T04:11:26.609Z,78.45
2023-02-15T04:13:57.620Z,77.03
2023-02-15T04:16:31.133Z,70.10
2023-02-15T04:19:16.496Z,72.63
2023-02-15T04:22:02.103Z,76.35
2023-02-15T04:24:47.456Z,74.60
2023-02-15T04:27:15.302Z,73.72
2023-02-15T04:29:42.417Z,75.22
2023-02-15T04:32:09.215Z,79.68
2023-02-15T04:34:35.952Z,73.32
2023-02-15T04:37:02.678Z,76.88
2023-02-15T04:39:29.446Z,89.45
2023-02-15T04:41:56.172Z,76.25
2023-02-15T04:44:22.945Z,76.53
2023-02-15T04:46:49.837Z,72.20
2023-02-15T04:49:16.566Z,76.80
2023-02-15T04:51:43.254Z,73.85
2023-02-15T04:54:09.977Z,71.95
2023-02-15T04:56:38.681Z,67.93
2023-02-15T04:59:05.518Z,72.40
2023-02-15T05:01:32.377Z,69.30
2023-02-15T05:03:59.180Z,76.13
2023-02-15T05:06:25.943Z,72.57
2023-02-15T05:08:52.784Z,66.65
2023-02-15T05:11:19.665Z,69.88
2023-02-15T05:13:46.483Z,63.47
2023-02-15T05:16:13.618Z,70.78
2023-02-15T05:18:40.443Z,67.10
2023-02-15T05:21:07.322Z,69.45
2023-02-15T05:23:34.159Z,66.53
2023-02-15T05:26:19.439Z,67.38
2023-02-15T05:28:46.218Z,63.95
2023-02-15T05:31:15.862Z,65.47
2023-02-15T05:33:43.371Z,67.15
2023-02-15T05:36:10.237Z,59.33
2023-02-15T05:38:40.390Z,65.68
2023-02-15T05:41:08.664Z,62.13
2023-02-15T05:43:35.769Z,67.10
2023-02-15T05:46:03.593Z,65.88
2023-02-15T05:48:31.435Z,67.10
2023-02-15T05:51:02.758Z,64.03
2023-02-15T05:53:31.521Z,65.93
2023-02-15T05:56:01.653Z,64.40
2023-02-15T05:58:30.737Z,68.85
2023-02-15T06:00:57.519Z,65.32
2023-02-15T06:03:26.677Z,73.88
2023-02-15T06:05:53.760Z,68.45
2023-02-15T06:08:20.457Z,69.47
2023-02-15T06:10:47.836Z,66.55
2023-02-15T06:13:14.804Z,64.25
2023-02-15T06:15:41.766Z,62.60
2023-02-15T06:18:08.546Z,65.40
2023-02-15T06:20:35.303Z,61.42
2023-02-15T06:23:02.068Z,63.70
2023-02-15T06:25:28.913Z,66.28
2023-02-15T06:27:55.659Z,69.90
2023-02-15T06:30:22.484Z,66.75
2023-02-15T06:32:49.198Z,65.30
2023-02-15T06:35:16.032Z,65.63
2023-02-15T06:37:42.739Z,67.78
2023-02-15T06:40:09.948Z,66.70
2023-02-15T06:42:36.697Z,62.38
2023-02-15T06:45:04.303Z,57.15
2023-02-15T06:47:31.547Z,59.03
2023-02-15T06:49:58.639Z,62.88
2023-02-15T06:52:25.621Z,62.00
2023-02-15T06:54:52.423Z,63.70
2023-02-15T06:57:19.146Z,66.50
2023-02-15T06:59:45.851Z,64.53
2023-02-15T07:02:13.304Z,69.38
2023-02-15T07:04:40.217Z,76.15
2023-02-15T07:07:11.376Z,78.70
2023-02-15T07:09:38.813Z,76.03
2023-02-15T07:12:25.111Z,70.25
2023-02-15T07:14:52.107Z,69.55
2023-02-15T07:17:34.957Z,72.70
2023-02-15T07:20:07.132Z,72.13
2023-02-15T07:22:35.086Z,72.55
2023-02-15T07:25:01.968Z,69.63
2023-02-15T07:27:28.730Z,72.22
2023-02-15T07:29:55.624Z,68.05
2023-02-15T07:32:22.469Z,72.10
2023-02-15T07:34:49.293Z,69.90
2023-02-15T07:37:15.999Z,76.68
2023-02-15T07:39:42.735Z,71.22
2023-02-15T07:42:09.558Z,79.18
2023-02-15T07:44:36.287Z,76.03
2023-02-15T07:47:03.035Z,74.20
2023-02-15T07:49:29.776Z,69.25
2023-02-15T07:51:56.520Z,63.72
2023-02-15T07:54:23.286Z,61.22
2023-02-15T07:56:50.055Z,61.50
2023-02-15T07:59:16.758Z,62.88
2023-02-15T08:01:43.458Z,67.03
2023-02-15T08:04:11.915Z,68.05
2023-02-15T08:06:39.328Z,69.78
2023-02-15T08:09:08.599Z,76.30
2023-02-15T08:11:38.400Z,88.55
2023-02-15T08:14:07.190Z,84.10
2023-02-15T08:16:44.289Z,89.32
2023-02-15T08:19:17.261Z,80.22
2023-02-15T08:21:46.583Z,76.97
2023-02-15T08:24:17.736Z,79.45
2023-02-15T08:26:48.679Z,85.88
2023-02-15T08:29:17.150Z,88.90
2023-02-15T08:31:44.526Z,93.68
2023-02-15T08:34:14.485Z,92.18
2023-02-15T08:36:41.183Z,85.47
2023-02-15T08:39:08.273Z,91.38
2023-02-15T08:41:37.022Z,88.53
2023-02-15T08:44:06.734Z,89.80
2023-02-15T08:46:36.174Z,90.20
2023-02-15T08:49:04.050Z,93.85
2023-02-15T08:51:33.635Z,101.57
2023-02-15T08:54:06.312Z,95.80
2023-02-15T08:56:36.360Z,93.78
2023-02-15T08:59:03.894Z,97.30
2023-02-15T09:01:32.997Z,102.32
2023-02-15T09:04:01.955Z,110.05
2023-02-15T09:06:29.496Z,112.35
2023-02-15T09:08:57.213Z,114.30
2023-02-15T09:11:29.413Z,115.63
2023-02-15T09:14:03.601Z,117.35
2023-02-15T09:16:32.802Z,111.03
2023-02-15T09:19:02.237Z,118.95
2023-02-15T09:21:29.809Z,117.13
2023-02-15T09:24:05.594Z,112.22
2023-02-15T09:26:35.282Z,118.40
2023-02-15T09:29:04.401Z,117.95
2023-02-15T09:31:33.718Z,105.97
2023-02-15T09:34:02.418Z,105.60
2023-02-15T09:36:38.327Z,109.20
2023-02-15T09:39:26.007Z,111.63
2023-02-15T09:42:17.496Z,107.00
2023-02-15T09:45:19.527Z,104.88
2023-02-15T09:48:06.001Z,108.70
2023-02-15T09:50:58.766Z,101.22
2023-02-15T09:53:43.739Z,103.35
2023-02-15T09:56:38.450Z,104.28
2023-02-15T09:59:17.140Z,102.22
2023-02-15T10:01:58.963Z,95.07
2023-02-15T10:04:47.857Z,91.22
2023-02-15T10:07:42.945Z,98.85
2023-02-15T10:10:29.740Z,96.53
2023-02-15T10:13:27.457Z,93.78
2023-02-15T10:15:59.035Z,90.70
2023-02-15T10:18:50.968Z,91.68
2023-02-15T10:24:22.135Z,89.97
2023-02-15T10:26:50.233Z,94.65
2023-02-15T10:29:35.803Z,85.65
2023-02-15T10:32:19.877Z,92.97
2023-02-15T10:34:58.202Z,91.80
2023-02-15T10:37:28.166Z,85.63
2023-02-15T10:39:54.793Z,92.07
2023-02-15T10:42:30.300Z,86.80
2023-02-15T10:45:15.851Z,87.20
2023-02-15T10:48:01.433Z,94.95
2023-02-15T10:51:01.358Z,84.35
2023-02-15T10:53:52.380Z,86.57
2023-02-15T10:56:46.184Z,86.68
2023-02-15T10:59:39.954Z,87.38
2023-02-15T11:02:24.667Z,90.43
2023-02-15T11:05:03.520Z,87.00
2023-02-15T11:07:35.905Z,88.03
2023-02-15T11:10:26.040Z,77.82
2023-02-15T11:12:53.674Z,82.22
2023-02-15T11:15:30.183Z,80.13
2023-02-15T11:18:03.663Z,77.78
2023-02-15T11:20:48.543Z,78.78
2023-02-15T11:23:17.488Z,75.20
2023-02-15T11:25:48.263Z,75.65
2023-02-15T11:28:26.740Z,80.45
2023-02-15T11:30:56.786Z,79.05
2023-02-15T11:33:31.302Z,78.13
2023-02-15T11:36:27.147Z,73.70
2023-02-15T11:39:00.254Z,73.00
2023-02-15T11:41:32.736Z,71.85
2023-02-15T11:44:06.099Z,74.35
2023-02-15T11:46:33.115Z,71.45
2023-02-15T11:49:00.089Z,70.53
2023-02-15T11:51:29.654Z,68.50
2023-02-15T11:53:57.547Z,68.28
2023-02-15T11:56:26.592Z,66.97
2023-02-15T11:58:59.544Z,69.80
2023-02-15T12:01:41.251Z,66.95
2023-02-15T12:04:13.425Z,67.07
2023-02-15T12:06:46.770Z,68.90
2023-02-15T12:09:35.417Z,75.55
2023-02-15T12:12:26.784Z,65.40
2023-02-15T12:15:02.877Z,64.68
2023-02-15T12:17:36.020Z,63.60
2023-02-15T12:20:13.266Z,66.45
2023-02-15T12:22:46.325Z,68.72
2023-02-15T12:25:52.858Z,67.18
2023-02-15T12:28:31.201Z,67.40
2023-02-15T12:30:58.896Z,64.65
2023-02-15T12:33:34.985Z,63.28
2023-02-15T12:36:20.496Z,67.10
2023-02-15T12:39:04.223Z,65.05
2023-02-15T12:41:30.988Z,70.20
2023-02-15T12:44:32.673Z,66.18
2023-02-15T12:47:17.792Z,67.43
2023-02-15T12:49:48.051Z,73.65
2023-02-15T12:52:23.887Z,65.85
2023-02-15T12:54:51.481Z,68.18
2023-02-15T12:57:24.103Z,71.43
2023-02-15T13:00:04.832Z,67.28
2023-02-15T13:02:43.262Z,68.60
2023-02-15T13:05:37.372Z,71.75
2023-02-15T13:08:10.296Z,69.43
2023-02-15T13:10:41.482Z,73.18
2023-02-15T13:13:23.599Z,68.55
2023-02-15T13:15:53.577Z,75.43
2023-02-15T13:18:31.944Z,73.55
2023-02-15T13:21:17.334Z,74.82
2023-02-15T13:23:49.636Z,69.15
2023-02-15T13:26:23.279Z,70.22
2023-02-15T13:28:56.531Z,72.55
2023-02-15T13:31:28.799Z,69.10
2023-02-15T13:34:11.371Z,71.40
2023-02-15T13:36:42.364Z,70.20
2023-02-15T13:39:14.839Z,70.22
2023-02-15T13:41:52.390Z,70.82
2023-02-15T13:45:02.092Z,69.63
2023-02-15T13:47:46.957Z,70.63
2023-02-15T13:50:42.911Z,73.57
2023-02-15T13:53:36.561Z,69.65
2023-02-15T13:56:09.401Z,67.20
2023-02-15T13:58:41.994Z,70.63
2023-02-15T14:01:20.627Z,67.30
2023-02-15T14:04:31.477Z,71.65
2023-02-15T14:07:26.121Z,73.95
2023-02-15T14:10:01.142Z,71.88
2023-02-15T14:13:04.661Z,66.35
2023-02-15T14:15:46.602Z,69.03
2023-02-15T14:18:31.714Z,68.93
2023-02-15T14:21:22.213Z,67.40
2023-02-15T14:24:03.107Z,70.03
2023-02-15T14:26:53.788Z,66.87
2023-02-15T14:29:49.491Z,67.88
2023-02-15T14:32:41.154Z,74.78
2023-02-15T14:35:19.450Z,65.75
2023-02-15T14:37:51.707Z,70.93
2023-02-15T14:40:44.341Z,72.25
2023-02-15T14:44:08.347Z,66.18
2023-02-15T14:46:37.714Z,63.67
2023-02-15T14:49:15.137Z,69.65
2023-02-15T14:51:44.813Z,68.22
2023-02-15T14:54:34.103Z,64.97
2023-02-15T14:57:03.504Z,64.65
2023-02-15T14:59:44.907Z,64.95
2023-02-15T15:02:18.740Z,67.72
2023-02-15T15:05:09.243Z,66.28
2023-02-15T15:07:53.132Z,71.72
2023-02-15T15:10:21.307Z,67.18
2023-02-15T15:12:48.040Z,71.28
2023-02-15T15:15:30.622Z,68.40
2023-02-15T15:18:05.169Z,73.57
2023-02-15T15:20:46.824Z,75.00
2023-02-15T15:23:16.632Z,68.55
2023-02-15T15:25:50.983Z,72.15
2023-02-15T15:28:35.969Z,70.28
2023-02-15T15:31:09.601Z,69.28
2023-02-15T15:34:10.695Z,67.70
2023-02-15T15:36:49.346Z,72.38
2023-02-15T15:39:31.111Z,70.13
2023-02-15T15:45:14.860Z,65.25
2023-02-15T15:47:58.732Z,70.18
2023-02-15T15:50:32.655Z,65.38
2023-02-15T15:53:01.143Z,64.00
2023-02-15T15:55:31.455Z,66.10
2023-02-15T15:58:01.845Z,65.97
2023-02-15T16:00:37.513Z,66.53
2023-02-15T16:03:05.302Z,67.40
2023-02-15T16:05:39.915Z,67.00
2023-02-15T16:08:06.979Z,68.40
2023-02-15T16:10:35.264Z,69.25
2023-02-15T16:13:02.988Z,66.93
2023-02-15T16:15:37.596Z,66.43
2023-02-15T16:18:05.238Z,67.68
2023-02-15T16:20:36.034Z,73.40
2023-02-15T16:23:21.680Z,66.67
2023-02-15T16:29:32.165Z,66.25
2023-02-15T16:32:19.562Z,66.45
2023-02-15T16:34:57.263Z,67.53
2023-02-15T16:37:28.194Z,67.00
2023-02-15T16:39:56.340Z,70.10
2023-02-15T16:42:23.609Z,64.53
2023-02-15T16:45:06.901Z,70.40
2023-02-15T16:47:40.293Z,67.05
2023-02-15T16:50:17.355Z,67.75
2023-02-15T16:52:44.813Z,66.53
2023-02-15T16:55:26.727Z,69.60
2023-02-15T16:57:58.101Z,68.90
2023-02-15T17:00:29.190Z,67.90
2023-02-15T17:03:01.358Z,72.13
2023-02-15T17:05:52.437Z,72.60
2023-02-15T17:08:24.945Z,69.87
2023-02-15T17:11:01.030Z,67.07
2023-02-15T17:13:28.891Z,78.07
2023-02-15T17:16:02.359Z,74.18
2023-02-15T17:18:33.877Z,66.28
2023-02-15T17:21:09.373Z,67.40
2023-02-15T17:23:41.100Z,64.45
2023-02-15T17:28:56.965Z,59.15
2023-02-15T17:31:29.564Z,59.50
2023-02-15T17:33:57.735Z,63.65
2023-02-15T17:36:29.836Z,60.53
2023-02-15T17:38:59.759Z,63.50
2023-02-15T17:41:28.901Z,58.83
2023-02-15T17:43:56.071Z,54.33
2023-02-15T17:46:23.572Z,56.75
2023-02-15T17:48:52.880Z,57.15
2023-02-15T17:51:21.455Z,56.92
2023-02-15T17:54:07.157Z,56.05
2023-02-15T17:56:35.483Z,61.80
2023-02-15T17:59:02.258Z,62.40
2023-02-15T18:01:47.585Z,54.17
2023-02-15T18:04:33.958Z,56.45
2023-02-15T18:07:19.303Z,55.70
2023-02-15T18:10:04.719Z,57.80
2023-02-15T18:12:33.930Z,54.40
2023-02-15T18:15:01.580Z,51.08
2023-02-15T18:17:35.500Z,56.03
2023-02-15T18:20:06.974Z,51.45
2023-02-15T18:22:34.123Z,52.22
2023-02-15T18:25:00.862Z,52.38
2023-02-15T18:27:27.607Z,50.78
2023-02-15T18:29:54.386Z,55.55
2023-02-15T18:32:32.192Z,54.17
2023-02-15T18:34:59.699Z,51.42
2023-02-15T18:37:30.828Z,51.50
2023-02-15T18:39:57.614Z,58.58
2023-02-15T18:42:29.147Z,52.15
2023-02-15T18:44:58.898Z,49.03
2023-02-15T18:47:26.332Z,56.35
2023-02-15T18:49:53.331Z,54.97
2023-02-15T18:52:26.313Z,53.67
2023-02-15T18:55:02.500Z,52.60
2023-02-15T18:57:30.256Z,55.95
2023-02-15T18:59:57.080Z,52.80
2023-02-15T19:02:24.081Z,53.22
2023-02-15T19:04:50.910Z,54.83
2023-02-15T19:07:29.886Z,55.50
2023-02-15T19:09:58.910Z,52.05
2023-02-15T19:12:26.571Z,54.97
2023-02-15T19:14:53.372Z,51.40
2023-02-15T19:17:21.835Z,55.40
2023-02-15T19:19:49.178Z,55.80
2023-02-15T19:22:27.103Z,51.85
2023-02-15T19:24:55.688Z,54.83
2023-02-15T19:27:27.192Z,59.38
2023-02-15T19:29:55.046Z,57.78
2023-02-15T19:32:21.832Z,57.10
2023-02-15T19:34:48.571Z,57.65
2023-02-15T19:37:34.161Z,57.58
2023-02-15T19:40:01.771Z,58.47
2023-02-15T19:42:29.415Z,58.88
2023-02-15T19:44:56.123Z,60.28
2023-02-15T19:47:23.117Z,59.30
2023-02-15T19:49:49.858Z,60.30
2023-02-15T19:52:19.671Z,58.38
2023-02-15T19:54:48.256Z,58.45
2023-02-15T19:57:15.095Z,61.95
2023-02-15T19:59:42.588Z,61.20
2023-02-15T20:02:18.888Z,66.85
2023-02-15T20:04:45.643Z,60.17
2023-02-15T20:07:28.580Z,65.85
2023-02-15T20:09:55.440Z,60.17
2023-02-15T20:12:28.674Z,63.15
2023-02-15T20:14:56.561Z,61.15
2023-02-15T20:17:23.274Z,59.10
2023-02-15T20:19:50.023Z,59.83
2023-02-15T20:22:25.066Z,62.05
2023-02-15T20:24:55.433Z,68.55
2023-02-15T20:27:22.686Z,69.38
2023-02-15T20:29:50.524Z,59.47
2023-02-15T20:32:17.436Z,63.60
2023-02-15T20:34:44.289Z,62.67
2023-02-15T20:37:24.170Z,62.42
2023-02-15T20:39:51.926Z,59.30
2023-02-15T20:42:19.365Z,62.47
2023-02-15T20:44:46.062Z,59.90
2023-02-15T20:47:12.827Z,66.45
2023-02-15T20:49:39.563Z,61.92
2023-02-15T20:52:20.782Z,63.45
2023-02-15T20:54:47.713Z,60.55
2023-02-15T20:57:14.543Z,61.63
2023-02-15T20:59:42.796Z,62.55
2023-02-15T21:02:23.049Z,58.50
2023-02-15T21:04:50.001Z,65.47
2023-02-15T21:07:21.605Z,63.47
2023-02-15T21:09:48.647Z,64.82
2023-02-15T21:12:17.835Z,66.93
2023-02-15T21:14:45.057Z,70.25
2023-02-15T21:17:13.701Z,63.55
2023-02-15T21:19:41.517Z,70.32
2023-02-15T21:22:13.390Z,67.55
2023-02-15T21:24:47.826Z,68.28
2023-02-15T21:27:15.497Z,69.35
2023-02-15T21:29:42.319Z,70.55
2023-02-15T21:32:10.905Z,74.72
2023-02-15T21:34:37.880Z,73.35
2023-02-15T21:37:05.101Z,70.53
2023-02-15T21:39:35.221Z,72.88
2023-02-15T21:42:20.784Z,76.60
2023-02-15T21:45:06.164Z,70.97
2023-02-15T21:47:51.415Z,71.70
2023-02-15T21:50:39.841Z,72.35
2023-02-15T21:53:10.577Z,77.85
2023-02-15T21:55:37.592Z,75.38
2023-02-15T21:58:05.338Z,76.13
2023-02-15T22:00:33.616Z,75.95
2023-02-15T22:03:01.857Z,83.88
2023-02-15T22:05:30.295Z,76.20
2023-02-15T22:07:57.424Z,82.38
2023-02-15T22:10:30.379Z,76.25
2023-02-15T22:12:59.467Z,76.03
2023-02-15T22:15:28.992Z,81.43
2023-02-15T22:17:55.716Z,74.38
2023-02-15T22:20:24.521Z,83.80
2023-02-15T22:22:52.322Z,79.50
2023-02-15T22:25:23.227Z,81.70
2023-02-15T22:27:51.680Z,77.90
2023-02-15T22:30:25.303Z,76.13
2023-02-15T22:32:52.977Z,77.05
2023-02-15T22:35:24.019Z,82.72
2023-02-15T22:37:50.851Z,79.55
2023-02-15T22:40:19.139Z,78.20
2023-02-15T22:42:47.882Z,81.65
2023-02-15T22:45:20.492Z,79.97
2023-02-15T22:47:49.244Z,85.60
2023-02-15T22:50:20.564Z,82.68
2023-02-15T22:52:47.445Z,81.38
2023-02-15T22:55:16.282Z,82.53
2023-02-15T22:57:44.854Z,88.20
2023-02-15T23:00:17.669Z,87.25
2023-02-15T23:02:44.749Z,88.25
2023-02-15T23:05:20.659Z,87.65
2023-02-15T23:07:48.222Z,84.85
2023-02-15T23:10:22.355Z,90.20
2023-02-15T23:13:15.086Z,91.32
2023-02-15T23:15:44.264Z,88.85
2023-02-15T23:18:27.401Z,93.60
2023-02-15T23:21:02.020Z,82.30
2023-02-15T23:23:37.595Z,86.05
2023-02-15T23:26:07.268Z,91.97
2023-02-15T23:28:38.135Z,93.03
2023-02-15T23:31:16.044Z,92.13
2023-02-15T23:33:42.935Z,91.55
2023-02-15T23:36:41.702Z,95.75
2023-02-15T23:39:34.518Z,94.55
2023-02-15T23:42:03.831Z,93.22
2023-02-15T23:44:30.900Z,92.35
2023-02-15T23:46:58.202Z,94.95
2023-02-15T23:49:25.171Z,91.60
2023-02-15T23:51:54.420Z,92.10
2023-02-15T23:54:24.606Z,94.68
2023-02-15T23:57:00.780Z,91.55
2023-02-15T23:59:30.807Z,98.65
